KLM085 SCEL-SAEZ
Flight info
| Callsign | KLM085 |
|---|---|
| Flight time | 1h 23m |
| Altitude | 39000 |
| Route | ALBAL7C ALBAL UM424 ASADA ASADA7U |
| Aircraft | B77W/H-SDE1E2E3FGHIJ2J3J4J5M1RWXYZ/LB1D1 |
Departure
| Time | 2026-04-30 09:07 |
|---|---|
| Airport | Comodoro Arturo Merino Benítez International Airport (SCEL) |
Arrival
| Time | 2026-04-30 10:31 |
|---|---|
| Airport | Ezeiza International Airport - Ministro Pistarini (SAEZ) |
| Time | Latitude | Longitude | Altitude | Speed | Heading |
|---|---|---|---|---|---|
| 2026-04-30 08:37 | -33.39921 | -70.79801 | 1569 ft | 0 kts | 176° |
| 2026-04-30 08:54 | -33.39919 | -70.79801 | 1569 ft | 2 kts | 176° |
| 2026-04-30 08:54 | -33.39893 | -70.79801 | 1569 ft | 4 kts | 184° |
| 2026-04-30 08:55 | -33.39872 | -70.79805 | 1569 ft | 3 kts | 141° |
| 2026-04-30 08:55 | -33.39858 | -70.79827 | 1570 ft | 4 kts | 89° |
| 2026-04-30 08:55 | -33.39862 | -70.79856 | 1570 ft | 2 kts | 87° |
| 2026-04-30 08:55 | -33.39862 | -70.79863 | 1570 ft | 0 kts | 88° |
| 2026-04-30 08:58 | -33.39860 | -70.79857 | 1570 ft | 3 kts | 68° |
| 2026-04-30 08:58 | -33.39829 | -70.79865 | 1570 ft | 8 kts | 308° |
| 2026-04-30 08:58 | -33.39762 | -70.79924 | 1570 ft | 14 kts | 346° |
| 2026-04-30 08:59 | -33.39666 | -70.79934 | 1570 ft | 14 kts | 357° |
| 2026-04-30 08:59 | -33.39570 | -70.79939 | 1570 ft | 14 kts | 357° |
| 2026-04-30 08:59 | -33.39474 | -70.79945 | 1570 ft | 14 kts | 357° |
| 2026-04-30 08:59 | -33.39378 | -70.79951 | 1570 ft | 14 kts | 357° |
| 2026-04-30 09:00 | -33.39281 | -70.79956 | 1570 ft | 14 kts | 357° |
| 2026-04-30 09:00 | -33.39186 | -70.79962 | 1570 ft | 14 kts | 357° |
| 2026-04-30 09:00 | -33.39089 | -70.79968 | 1570 ft | 15 kts | 357° |
| 2026-04-30 09:00 | -33.38979 | -70.79974 | 1570 ft | 17 kts | 357° |
| 2026-04-30 09:01 | -33.38853 | -70.79982 | 1570 ft | 19 kts | 357° |
| 2026-04-30 09:01 | -33.38713 | -70.79989 | 1570 ft | 21 kts | 359° |
| 2026-04-30 09:01 | -33.38563 | -70.79994 | 1570 ft | 22 kts | 356° |
| 2026-04-30 09:01 | -33.38401 | -70.80005 | 1570 ft | 24 kts | 356° |
| 2026-04-30 09:02 | -33.38145 | -70.80019 | 1570 ft | 5 kts | 357° |
| 2026-04-30 09:02 | -33.38113 | -70.80028 | 1570 ft | 5 kts | 334° |
| 2026-04-30 09:02 | -33.38096 | -70.80062 | 1570 ft | 5 kts | 279° |
| 2026-04-30 09:03 | -33.38092 | -70.80104 | 1571 ft | 5 kts | 298° |
| 2026-04-30 09:03 | -33.38057 | -70.80124 | 1571 ft | 6 kts | 349° |
| 2026-04-30 09:03 | -33.38017 | -70.80127 | 1571 ft | 6 kts | 357° |
| 2026-04-30 09:03 | -33.37965 | -70.80130 | 1571 ft | 10 kts | 357° |
| 2026-04-30 09:04 | -33.37882 | -70.80135 | 1571 ft | 14 kts | 357° |
| 2026-04-30 09:04 | -33.37770 | -70.80142 | 1571 ft | 18 kts | 357° |
| 2026-04-30 09:04 | -33.37631 | -70.80150 | 1571 ft | 22 kts | 358° |
| 2026-04-30 09:04 | -33.37464 | -70.80155 | 1571 ft | 26 kts | 357° |
| 2026-04-30 09:05 | -33.37292 | -70.80166 | 1572 ft | 25 kts | 357° |
| 2026-04-30 09:05 | -33.37198 | -70.80172 | 1572 ft | 10 kts | 357° |
| 2026-04-30 09:05 | -33.37131 | -70.80194 | 1572 ft | 10 kts | 322° |
| 2026-04-30 09:05 | -33.37105 | -70.80271 | 1575 ft | 10 kts | 274° |
| 2026-04-30 09:06 | -33.37129 | -70.80348 | 1579 ft | 10 kts | 225° |
| 2026-04-30 09:06 | -33.37194 | -70.80374 | 1578 ft | 10 kts | 175° |
| 2026-04-30 09:06 | -33.37269 | -70.80371 | 1578 ft | 11 kts | 178° |
| 2026-04-30 09:06 | -33.37287 | -70.80370 | 1578 ft | 1 kts | 178° |
| 2026-04-30 09:07 | -33.37508 | -70.80357 | 1579 ft | 73 kts | 177° |
| 2026-04-30 09:07 | -33.38280 | -70.80314 | 1578 ft | 149 kts | 177° |
| 2026-04-30 09:07 | -33.39511 | -70.80247 | 1670 ft | 197 kts | 177° |
| 2026-04-30 09:07 | -33.40838 | -70.80177 | 2564 ft | 190 kts | 177° |
| 2026-04-30 09:08 | -33.42189 | -70.80116 | 3273 ft | 200 kts | 178° |
| 2026-04-30 09:08 | -33.43672 | -70.80027 | 3619 ft | 228 kts | 176° |
| 2026-04-30 09:08 | -33.45389 | -70.79921 | 3797 ft | 264 kts | 177° |
| 2026-04-30 09:08 | -33.47244 | -70.79819 | 4679 ft | 270 kts | 177° |
| 2026-04-30 09:09 | -33.49151 | -70.79736 | 5573 ft | 277 kts | 178° |
| 2026-04-30 09:09 | -33.51099 | -70.79643 | 6459 ft | 283 kts | 178° |
| 2026-04-30 09:09 | -33.53068 | -70.79537 | 7309 ft | 290 kts | 177° |
| 2026-04-30 09:09 | -33.55100 | -70.79364 | 8172 ft | 296 kts | 174° |
| 2026-04-30 09:10 | -33.57160 | -70.79076 | 9052 ft | 300 kts | 173° |
| 2026-04-30 09:10 | -33.59243 | -70.78805 | 9921 ft | 303 kts | 174° |
| 2026-04-30 09:10 | -33.61364 | -70.78531 | 10740 ft | 310 kts | 174° |
| 2026-04-30 09:10 | -33.63572 | -70.78245 | 11305 ft | 331 kts | 175° |
| 2026-04-30 09:11 | -33.65962 | -70.77951 | 11556 ft | 361 kts | 175° |
| 2026-04-30 09:11 | -33.68559 | -70.77643 | 11944 ft | 385 kts | 176° |
| 2026-04-30 09:11 | -33.71225 | -70.77326 | 12767 ft | 395 kts | 176° |
| 2026-04-30 09:11 | -33.73979 | -70.76994 | 13718 ft | 401 kts | 176° |
| 2026-04-30 09:12 | -33.76765 | -70.76653 | 14755 ft | 404 kts | 177° |
| 2026-04-30 09:12 | -33.79552 | -70.76168 | 15621 ft | 409 kts | 167° |
| 2026-04-30 09:12 | -33.82147 | -70.74621 | 16373 ft | 427 kts | 144° |
| 2026-04-30 09:12 | -33.84209 | -70.72015 | 17231 ft | 437 kts | 125° |
| 2026-04-30 09:13 | -33.85612 | -70.68749 | 17994 ft | 443 kts | 115° |
| 2026-04-30 09:13 | -33.86871 | -70.65311 | 18639 ft | 455 kts | 115° |
| 2026-04-30 09:13 | -33.88146 | -70.61800 | 19411 ft | 461 kts | 115° |
| 2026-04-30 09:13 | -33.89438 | -70.58297 | 20207 ft | 466 kts | 116° |
| 2026-04-30 09:14 | -33.90781 | -70.54731 | 21020 ft | 471 kts | 116° |
| 2026-04-30 09:14 | -33.92157 | -70.51123 | 21764 ft | 477 kts | 116° |
| 2026-04-30 09:14 | -33.93550 | -70.47473 | 22473 ft | 482 kts | 116° |
| 2026-04-30 09:14 | -33.94957 | -70.43778 | 23170 ft | 487 kts | 116° |
| 2026-04-30 09:15 | -33.96372 | -70.40051 | 23845 ft | 492 kts | 116° |
| 2026-04-30 09:15 | -33.97802 | -70.36280 | 24503 ft | 497 kts | 116° |
| 2026-04-30 09:15 | -33.99238 | -70.32477 | 25142 ft | 502 kts | 116° |
| 2026-04-30 09:15 | -34.00694 | -70.28622 | 25716 ft | 508 kts | 116° |
| 2026-04-30 09:16 | -34.02164 | -70.24730 | 26248 ft | 513 kts | 116° |
| 2026-04-30 09:16 | -34.03627 | -70.20855 | 26815 ft | 518 kts | 116° |
| 2026-04-30 09:16 | -34.05127 | -70.16879 | 27347 ft | 522 kts | 116° |
| 2026-04-30 09:16 | -34.06631 | -70.12883 | 27835 ft | 527 kts | 116° |
| 2026-04-30 09:17 | -34.08155 | -70.08830 | 28307 ft | 531 kts | 116° |
| 2026-04-30 09:17 | -34.09684 | -70.04757 | 28834 ft | 535 kts | 116° |
| 2026-04-30 09:17 | -34.11222 | -70.00651 | 29350 ft | 538 kts | 116° |
| 2026-04-30 09:17 | -34.12770 | -69.96517 | 29804 ft | 542 kts | 116° |
| 2026-04-30 09:18 | -34.14326 | -69.92355 | 30253 ft | 545 kts | 115° |
| 2026-04-30 09:18 | -34.15886 | -69.88181 | 30773 ft | 545 kts | 115° |
| 2026-04-30 09:18 | -34.17442 | -69.84008 | 31389 ft | 543 kts | 115° |
| 2026-04-30 09:18 | -34.18409 | -69.81220 | 31786 ft | 543 kts | 110° |
| 2026-04-30 09:19 | -34.19573 | -69.75357 | 32506 ft | 540 kts | 98° |
| 2026-04-30 09:19 | -34.20119 | -69.70867 | 33043 ft | 538 kts | 96° |
| 2026-04-30 09:19 | -34.20607 | -69.66396 | 33564 ft | 537 kts | 96° |
| 2026-04-30 09:19 | -34.21113 | -69.61914 | 34057 ft | 536 kts | 97° |
| 2026-04-30 09:20 | -34.21469 | -69.58966 | 34381 ft | 535 kts | 97° |
| 2026-04-30 09:20 | -34.22040 | -69.54524 | 34831 ft | 534 kts | 97° |
| 2026-04-30 09:20 | -34.22642 | -69.50069 | 35216 ft | 535 kts | 98° |
| 2026-04-30 09:20 | -34.23256 | -69.45635 | 35647 ft | 535 kts | 98° |
| 2026-04-30 09:21 | -34.23871 | -69.41204 | 36013 ft | 534 kts | 98° |
| 2026-04-30 09:21 | -34.24482 | -69.36775 | 36343 ft | 535 kts | 98° |
| 2026-04-30 09:21 | -34.25088 | -69.32324 | 36639 ft | 536 kts | 98° |
| 2026-04-30 09:21 | -34.25690 | -69.27873 | 36987 ft | 536 kts | 97° |
| 2026-04-30 09:22 | -34.26288 | -69.23436 | 37404 ft | 533 kts | 97° |
| 2026-04-30 09:22 | -34.26881 | -69.19020 | 37825 ft | 530 kts | 97° |
| 2026-04-30 09:22 | -34.27463 | -69.14676 | 38186 ft | 529 kts | 97° |
| 2026-04-30 09:22 | -34.28049 | -69.10295 | 38511 ft | 528 kts | 97° |
| 2026-04-30 09:23 | -34.28634 | -69.05910 | 38746 ft | 529 kts | 97° |
| 2026-04-30 09:23 | -34.29219 | -69.01503 | 38860 ft | 533 kts | 97° |
| 2026-04-30 09:23 | -34.30383 | -68.92600 | 38938 ft | 537 kts | 97° |
| 2026-04-30 09:24 | -34.31540 | -68.83699 | 38909 ft | 532 kts | 97° |
| 2026-04-30 09:24 | -34.32682 | -68.74874 | 38916 ft | 530 kts | 97° |
| 2026-04-30 09:25 | -34.33816 | -68.66059 | 38928 ft | 530 kts | 97° |
| 2026-04-30 09:25 | -34.34944 | -68.57223 | 38932 ft | 532 kts | 97° |
| 2026-04-30 09:26 | -34.36070 | -68.48370 | 38930 ft | 533 kts | 97° |
| 2026-04-30 09:26 | -34.37182 | -68.39561 | 38928 ft | 533 kts | 97° |
| 2026-04-30 09:27 | -34.38301 | -68.30662 | 38933 ft | 534 kts | 97° |
| 2026-04-30 09:27 | -34.39412 | -68.21757 | 38921 ft | 535 kts | 97° |
| 2026-04-30 09:28 | -34.40520 | -68.12834 | 38930 ft | 535 kts | 97° |
| 2026-04-30 09:28 | -34.41620 | -68.03915 | 38923 ft | 535 kts | 97° |
| 2026-04-30 09:29 | -34.42712 | -67.95010 | 38919 ft | 535 kts | 97° |
| 2026-04-30 09:29 | -34.43790 | -67.86158 | 38919 ft | 534 kts | 97° |
| 2026-04-30 09:30 | -34.44869 | -67.77236 | 38928 ft | 534 kts | 97° |
| 2026-04-30 09:30 | -34.45906 | -67.68316 | 38932 ft | 534 kts | 96° |
| 2026-04-30 09:31 | -34.46929 | -67.59393 | 38912 ft | 534 kts | 96° |
| 2026-04-30 09:31 | -34.47942 | -67.50543 | 38913 ft | 533 kts | 96° |
| 2026-04-30 09:32 | -34.48961 | -67.41629 | 38914 ft | 533 kts | 96° |
| 2026-04-30 09:32 | -34.49969 | -67.32719 | 38916 ft | 533 kts | 96° |
| 2026-04-30 09:33 | -34.50973 | -67.23799 | 38917 ft | 534 kts | 96° |
| 2026-04-30 09:33 | -34.51974 | -67.14869 | 38918 ft | 536 kts | 96° |
| 2026-04-30 09:34 | -34.52968 | -67.05944 | 38930 ft | 537 kts | 96° |
| 2026-04-30 09:34 | -34.53964 | -66.96940 | 38911 ft | 539 kts | 96° |
| 2026-04-30 09:35 | -34.54958 | -66.87907 | 38915 ft | 541 kts | 96° |
| 2026-04-30 09:35 | -34.55946 | -66.78838 | 38916 ft | 542 kts | 96° |
| 2026-04-30 09:36 | -34.56927 | -66.69765 | 38930 ft | 543 kts | 96° |
| 2026-04-30 09:36 | -34.57906 | -66.60668 | 38915 ft | 543 kts | 96° |
| 2026-04-30 09:37 | -34.58879 | -66.51578 | 38927 ft | 543 kts | 96° |
| 2026-04-30 09:37 | -34.59836 | -66.42548 | 38914 ft | 542 kts | 96° |
| 2026-04-30 09:38 | -34.60792 | -66.33462 | 38924 ft | 541 kts | 96° |
| 2026-04-30 09:38 | -34.61740 | -66.24395 | 38929 ft | 541 kts | 96° |
| 2026-04-30 09:39 | -34.62680 | -66.15344 | 38931 ft | 540 kts | 96° |
| 2026-04-30 09:39 | -34.63611 | -66.06305 | 38937 ft | 539 kts | 96° |
| 2026-04-30 09:40 | -34.64528 | -65.97320 | 38933 ft | 539 kts | 96° |
| 2026-04-30 09:40 | -34.65447 | -65.88270 | 38930 ft | 540 kts | 96° |
| 2026-04-30 09:41 | -34.66362 | -65.79215 | 38941 ft | 540 kts | 96° |
| 2026-04-30 09:41 | -34.67267 | -65.70142 | 38938 ft | 542 kts | 96° |
| 2026-04-30 09:42 | -34.68170 | -65.61033 | 38939 ft | 543 kts | 96° |
| 2026-04-30 09:42 | -34.69068 | -65.51900 | 38940 ft | 545 kts | 96° |
| 2026-04-30 09:43 | -34.69958 | -65.42803 | 38938 ft | 546 kts | 96° |
| 2026-04-30 09:43 | -34.70846 | -65.33636 | 38937 ft | 546 kts | 96° |
| 2026-04-30 09:44 | -34.71728 | -65.24438 | 38938 ft | 547 kts | 96° |
| 2026-04-30 09:44 | -34.72604 | -65.15229 | 38932 ft | 548 kts | 96° |
| 2026-04-30 09:45 | -34.73472 | -65.06032 | 38938 ft | 548 kts | 96° |
| 2026-04-30 09:45 | -34.74339 | -64.96823 | 38935 ft | 548 kts | 96° |
| 2026-04-30 09:46 | -34.75192 | -64.87612 | 38920 ft | 548 kts | 96° |
| 2026-04-30 09:46 | -34.76041 | -64.78403 | 38927 ft | 548 kts | 96° |
| 2026-04-30 09:47 | -34.76879 | -64.69251 | 38925 ft | 548 kts | 96° |
| 2026-04-30 09:47 | -34.77716 | -64.60016 | 38923 ft | 548 kts | 95° |
| 2026-04-30 09:48 | -34.78550 | -64.50782 | 38929 ft | 549 kts | 95° |
| 2026-04-30 09:48 | -34.79377 | -64.41542 | 38931 ft | 548 kts | 95° |
| 2026-04-30 09:49 | -34.80196 | -64.32309 | 38932 ft | 548 kts | 95° |
| 2026-04-30 09:49 | -34.81007 | -64.23086 | 38928 ft | 548 kts | 95° |
| 2026-04-30 09:50 | -34.81806 | -64.13919 | 38916 ft | 548 kts | 95° |
| 2026-04-30 09:50 | -34.82603 | -64.04703 | 38924 ft | 548 kts | 95° |
| 2026-04-30 09:51 | -34.83397 | -63.95461 | 38919 ft | 548 kts | 96° |
| 2026-04-30 09:51 | -34.84193 | -63.86214 | 38925 ft | 548 kts | 96° |
| 2026-04-30 09:52 | -34.84978 | -63.77037 | 38927 ft | 549 kts | 96° |
| 2026-04-30 09:52 | -34.85763 | -63.67784 | 38928 ft | 549 kts | 96° |
| 2026-04-30 09:53 | -34.86542 | -63.58510 | 38929 ft | 550 kts | 96° |
| 2026-04-30 09:53 | -34.87313 | -63.49232 | 38918 ft | 550 kts | 96° |
| 2026-04-30 09:54 | -34.88076 | -63.39953 | 38923 ft | 551 kts | 96° |
| 2026-04-30 09:54 | -34.88833 | -63.30664 | 38916 ft | 552 kts | 96° |
| 2026-04-30 09:55 | -34.89581 | -63.21416 | 38929 ft | 552 kts | 96° |
| 2026-04-30 09:55 | -34.90328 | -63.12102 | 38929 ft | 553 kts | 96° |
| 2026-04-30 09:56 | -34.91065 | -63.02781 | 38917 ft | 553 kts | 96° |
| 2026-04-30 09:56 | -34.91798 | -62.93437 | 38931 ft | 554 kts | 95° |
| 2026-04-30 09:57 | -34.92523 | -62.84091 | 38928 ft | 554 kts | 96° |
| 2026-04-30 09:57 | -34.93242 | -62.74740 | 38917 ft | 554 kts | 96° |
| 2026-04-30 09:58 | -34.93957 | -62.65374 | 38933 ft | 554 kts | 96° |
| 2026-04-30 09:58 | -34.94668 | -62.56022 | 38942 ft | 554 kts | 96° |
| 2026-04-30 09:59 | -34.96077 | -62.37347 | 38936 ft | 555 kts | 96° |
| 2026-04-30 10:00 | -34.96976 | -62.23284 | 38938 ft | 555 kts | 92° |
| 2026-04-30 10:01 | -34.97316 | -62.09155 | 38945 ft | 555 kts | 91° |
| 2026-04-30 10:02 | -34.97714 | -61.95029 | 38953 ft | 556 kts | 92° |
| 2026-04-30 10:02 | -34.98010 | -61.85604 | 38963 ft | 555 kts | 92° |
| 2026-04-30 10:03 | -34.98288 | -61.76240 | 38963 ft | 556 kts | 92° |
| 2026-04-30 10:03 | -34.98557 | -61.66799 | 38963 ft | 557 kts | 92° |
| 2026-04-30 10:04 | -34.98822 | -61.57355 | 38894 ft | 559 kts | 92° |
| 2026-04-30 10:04 | -34.98952 | -61.52578 | 38117 ft | 567 kts | 92° |
| 2026-04-30 10:04 | -34.99080 | -61.47780 | 37455 ft | 566 kts | 92° |
| 2026-04-30 10:04 | -34.99206 | -61.42988 | 36758 ft | 564 kts | 92° |
| 2026-04-30 10:05 | -34.99330 | -61.38209 | 36049 ft | 563 kts | 92° |
| 2026-04-30 10:05 | -34.99451 | -61.33442 | 35284 ft | 563 kts | 92° |
| 2026-04-30 10:05 | -34.99532 | -61.30269 | 34709 ft | 564 kts | 92° |
| 2026-04-30 10:05 | -34.99690 | -61.23932 | 33815 ft | 561 kts | 92° |
| 2026-04-30 10:06 | -34.99805 | -61.19190 | 33336 ft | 555 kts | 92° |
| 2026-04-30 10:06 | -34.99917 | -61.14510 | 32832 ft | 550 kts | 92° |
| 2026-04-30 10:06 | -34.99992 | -61.11371 | 32500 ft | 546 kts | 92° |
| 2026-04-30 10:06 | -35.00099 | -61.06815 | 32009 ft | 541 kts | 92° |
| 2026-04-30 10:07 | -35.00207 | -61.02178 | 31509 ft | 537 kts | 93° |
| 2026-04-30 10:07 | -35.00308 | -60.97711 | 31027 ft | 532 kts | 93° |
| 2026-04-30 10:07 | -35.00407 | -60.93215 | 30545 ft | 528 kts | 93° |
| 2026-04-30 10:07 | -35.00504 | -60.88762 | 30064 ft | 523 kts | 93° |
| 2026-04-30 10:08 | -35.00599 | -60.84345 | 29575 ft | 519 kts | 94° |
| 2026-04-30 10:08 | -35.00692 | -60.79955 | 29078 ft | 516 kts | 93° |
| 2026-04-30 10:08 | -35.00783 | -60.75586 | 28579 ft | 512 kts | 94° |
| 2026-04-30 10:08 | -35.00872 | -60.71260 | 28093 ft | 508 kts | 94° |
| 2026-04-30 10:09 | -35.00959 | -60.66962 | 27606 ft | 504 kts | 94° |
| 2026-04-30 10:09 | -35.01044 | -60.62703 | 27126 ft | 500 kts | 94° |
| 2026-04-30 10:09 | -35.01124 | -60.58535 | 26648 ft | 497 kts | 94° |
| 2026-04-30 10:09 | -35.01205 | -60.54329 | 26168 ft | 493 kts | 94° |
| 2026-04-30 10:10 | -35.01283 | -60.50159 | 25687 ft | 490 kts | 94° |
| 2026-04-30 10:10 | -35.01359 | -60.46026 | 25208 ft | 486 kts | 94° |
| 2026-04-30 10:10 | -35.01433 | -60.41910 | 24734 ft | 483 kts | 94° |
| 2026-04-30 10:10 | -35.01506 | -60.37826 | 24256 ft | 480 kts | 94° |
| 2026-04-30 10:11 | -35.01577 | -60.33753 | 23778 ft | 477 kts | 94° |
| 2026-04-30 10:11 | -35.01646 | -60.29727 | 23311 ft | 474 kts | 94° |
| 2026-04-30 10:11 | -35.01712 | -60.25762 | 22845 ft | 471 kts | 94° |
| 2026-04-30 10:11 | -35.01778 | -60.21784 | 22379 ft | 468 kts | 94° |
| 2026-04-30 10:12 | -35.01842 | -60.17826 | 21913 ft | 465 kts | 94° |
| 2026-04-30 10:12 | -35.01904 | -60.13900 | 21449 ft | 462 kts | 94° |
| 2026-04-30 10:12 | -35.01965 | -60.09994 | 20986 ft | 459 kts | 94° |
| 2026-04-30 10:12 | -35.02024 | -60.06104 | 20520 ft | 456 kts | 93° |
| 2026-04-30 10:13 | -35.02081 | -60.02253 | 20056 ft | 453 kts | 93° |
| 2026-04-30 10:13 | -35.02136 | -59.98412 | 19592 ft | 451 kts | 93° |
| 2026-04-30 10:13 | -35.02190 | -59.94601 | 19127 ft | 448 kts | 94° |
| 2026-04-30 10:13 | -35.02243 | -59.90811 | 18662 ft | 446 kts | 93° |
| 2026-04-30 10:14 | -35.02295 | -59.87038 | 18202 ft | 443 kts | 93° |
| 2026-04-30 10:14 | -35.02344 | -59.83330 | 17731 ft | 441 kts | 93° |
| 2026-04-30 10:14 | -35.02440 | -59.75878 | 16788 ft | 436 kts | 93° |
| 2026-04-30 10:15 | -35.02486 | -59.72194 | 16314 ft | 433 kts | 93° |
| 2026-04-30 10:15 | -35.02531 | -59.68526 | 15846 ft | 431 kts | 93° |
| 2026-04-30 10:15 | -35.02574 | -59.64875 | 15373 ft | 428 kts | 93° |
| 2026-04-30 10:15 | -35.02508 | -59.61266 | 14883 ft | 424 kts | 85° |
| 2026-04-30 10:16 | -35.01977 | -59.57731 | 14432 ft | 421 kts | 78° |
| 2026-04-30 10:16 | -35.01295 | -59.54276 | 13970 ft | 418 kts | 77° |
| 2026-04-30 10:16 | -35.00604 | -59.50890 | 13506 ft | 415 kts | 77° |
| 2026-04-30 10:17 | -34.99282 | -59.44147 | 12552 ft | 394 kts | 78° |
| 2026-04-30 10:17 | -34.98087 | -59.37708 | 11663 ft | 386 kts | 78° |
| 2026-04-30 10:17 | -34.97517 | -59.34592 | 11196 ft | 368 kts | 78° |
| 2026-04-30 10:18 | -34.96964 | -59.31563 | 10793 ft | 364 kts | 78° |
| 2026-04-30 10:18 | -34.96419 | -59.28568 | 10590 ft | 357 kts | 78° |
| 2026-04-30 10:18 | -34.95896 | -59.25705 | 10405 ft | 334 kts | 78° |
| 2026-04-30 10:19 | -34.94955 | -59.20567 | 10163 ft | 300 kts | 78° |
| 2026-04-30 10:19 | -34.94504 | -59.18111 | 10039 ft | 293 kts | 78° |
| 2026-04-30 10:19 | -34.94059 | -59.15697 | 9757 ft | 292 kts | 77° |
| 2026-04-30 10:19 | -34.93614 | -59.13277 | 9464 ft | 292 kts | 77° |
| 2026-04-30 10:20 | -34.93170 | -59.10864 | 9160 ft | 292 kts | 77° |
| 2026-04-30 10:20 | -34.92280 | -59.06045 | 8567 ft | 289 kts | 77° |
| 2026-04-30 10:20 | -34.91839 | -59.03655 | 8297 ft | 287 kts | 77° |
| 2026-04-30 10:21 | -34.91401 | -59.01291 | 8012 ft | 285 kts | 77° |
| 2026-04-30 10:21 | -34.90856 | -58.98993 | 7620 ft | 280 kts | 62° |
| 2026-04-30 10:21 | -34.89606 | -58.97241 | 7187 ft | 279 kts | 32° |
| 2026-04-30 10:21 | -34.87898 | -58.96180 | 6979 ft | 262 kts | 21° |
| 2026-04-30 10:22 | -34.86289 | -58.95319 | 6573 ft | 253 kts | 21° |
| 2026-04-30 10:22 | -34.84639 | -58.94431 | 6098 ft | 260 kts | 22° |
| 2026-04-30 10:22 | -34.83001 | -58.93545 | 5712 ft | 258 kts | 22° |
| 2026-04-30 10:22 | -34.81414 | -58.92681 | 5387 ft | 241 kts | 22° |
| 2026-04-30 10:23 | -34.79959 | -58.91888 | 5256 ft | 219 kts | 22° |
| 2026-04-30 10:23 | -34.78613 | -58.91155 | 5164 ft | 206 kts | 23° |
| 2026-04-30 10:23 | -34.77463 | -58.90156 | 5132 ft | 206 kts | 50° |
| 2026-04-30 10:23 | -34.76752 | -58.88631 | 4984 ft | 208 kts | 60° |
| 2026-04-30 10:24 | -34.76181 | -58.87018 | 4686 ft | 209 kts | 82° |
| 2026-04-30 10:24 | -34.76375 | -58.85329 | 4493 ft | 202 kts | 108° |
| 2026-04-30 10:24 | -34.76761 | -58.83730 | 4298 ft | 193 kts | 103° |
| 2026-04-30 10:24 | -34.77063 | -58.82183 | 4094 ft | 184 kts | 102° |
| 2026-04-30 10:25 | -34.77337 | -58.80700 | 3871 ft | 175 kts | 102° |
| 2026-04-30 10:25 | -34.77594 | -58.79287 | 3668 ft | 169 kts | 101° |
| 2026-04-30 10:25 | -34.77847 | -58.77884 | 3503 ft | 171 kts | 101° |
| 2026-04-30 10:25 | -34.78101 | -58.76467 | 3296 ft | 170 kts | 101° |
| 2026-04-30 10:26 | -34.78353 | -58.75069 | 3104 ft | 168 kts | 101° |
| 2026-04-30 10:26 | -34.78601 | -58.73690 | 2911 ft | 166 kts | 101° |
| 2026-04-30 10:26 | -34.78849 | -58.72325 | 2737 ft | 165 kts | 101° |
| 2026-04-30 10:26 | -34.79090 | -58.70981 | 2558 ft | 164 kts | 101° |
| 2026-04-30 10:27 | -34.79332 | -58.69634 | 2379 ft | 162 kts | 101° |
| 2026-04-30 10:27 | -34.79572 | -58.68292 | 2188 ft | 161 kts | 101° |
| 2026-04-30 10:27 | -34.79807 | -58.66993 | 1975 ft | 152 kts | 101° |
| 2026-04-30 10:27 | -34.80025 | -58.65787 | 1798 ft | 142 kts | 101° |
| 2026-04-30 10:28 | -34.80236 | -58.64608 | 1618 ft | 143 kts | 101° |
| 2026-04-30 10:28 | -34.80447 | -58.63433 | 1418 ft | 141 kts | 101° |
| 2026-04-30 10:28 | -34.80656 | -58.62270 | 1230 ft | 140 kts | 102° |
| 2026-04-30 10:28 | -34.80864 | -58.61116 | 1043 ft | 139 kts | 102° |
| 2026-04-30 10:29 | -34.81070 | -58.59964 | 863 ft | 139 kts | 102° |
| 2026-04-30 10:29 | -34.81282 | -58.58819 | 679 ft | 139 kts | 103° |
| 2026-04-30 10:29 | -34.81485 | -58.57667 | 476 ft | 139 kts | 99° |
| 2026-04-30 10:29 | -34.81669 | -58.56528 | 283 ft | 139 kts | 102° |
| 2026-04-30 10:30 | -34.81889 | -58.55392 | 134 ft | 138 kts | 103° |
| 2026-04-30 10:30 | -34.82094 | -58.54285 | 91 ft | 125 kts | 102° |
| 2026-04-30 10:30 | -34.82247 | -58.53434 | 87 ft | 81 kts | 102° |
| 2026-04-30 10:30 | -34.82342 | -58.52895 | 92 ft | 59 kts | 103° |
| 2026-04-30 10:31 | -34.82426 | -58.52427 | 88 ft | 54 kts | 102° |
| 2026-04-30 10:31 | -34.82498 | -58.52016 | 89 ft | 24 kts | 102° |
| 2026-04-30 10:31 | -34.82511 | -58.51900 | 90 ft | 11 kts | 83° |
| 2026-04-30 10:31 | -34.82468 | -58.51823 | 86 ft | 12 kts | 30° |
| 2026-04-30 10:32 | -34.82368 | -58.51804 | 84 ft | 16 kts | 9° |
| 2026-04-30 10:32 | -34.82286 | -58.51801 | 83 ft | 12 kts | 335° |
| 2026-04-30 10:32 | -34.82253 | -58.51889 | 83 ft | 12 kts | 283° |
| 2026-04-30 10:32 | -34.82234 | -58.51986 | 84 ft | 12 kts | 283° |
| 2026-04-30 10:33 | -34.82213 | -58.52090 | 85 ft | 14 kts | 284° |
| 2026-04-30 10:33 | -34.82186 | -58.52224 | 85 ft | 19 kts | 284° |
| 2026-04-30 10:33 | -34.82149 | -58.52399 | 85 ft | 24 kts | 283° |
| 2026-04-30 10:33 | -34.82108 | -58.52613 | 83 ft | 28 kts | 283° |
| 2026-04-30 10:34 | -34.82069 | -58.52816 | 85 ft | 19 kts | 284° |
| 2026-04-30 10:34 | -34.82037 | -58.52972 | 89 ft | 19 kts | 284° |
| 2026-04-30 10:34 | -34.82005 | -58.53132 | 86 ft | 20 kts | 284° |
| 2026-04-30 10:34 | -34.81970 | -58.53300 | 83 ft | 20 kts | 284° |
| 2026-04-30 10:35 | -34.81941 | -58.53445 | 80 ft | 16 kts | 283° |
| 2026-04-30 10:35 | -34.81913 | -58.53579 | 82 ft | 16 kts | 288° |
| 2026-04-30 10:35 | -34.81832 | -58.53670 | 90 ft | 16 kts | 333° |
| 2026-04-30 10:35 | -34.81729 | -58.53731 | 82 ft | 16 kts | 333° |
| 2026-04-30 10:36 | -34.81673 | -58.53802 | 83 ft | 7 kts | 308° |
| 2026-04-30 10:36 | -34.81634 | -58.53850 | 90 ft | 8 kts | 321° |
| 2026-04-30 10:36 | -34.81585 | -58.53898 | 85 ft | 9 kts | 322° |
| 2026-04-30 10:36 | -34.81555 | -58.53927 | 85 ft | 0 kts | 322° |